sensor_id;sensor_type;location;lat;lon;timestamp;pressure;altitude;pressure_sealevel;temperature;humidity
12178;BME280;6152;48.728;9.256;2023-06-10T00:02:09;96702.84;;;18.73;91.63
12178;BME280;6152;48.728;9.256;2023-06-10T00:04:35;96699.84;;;18.67;92.90
12178;BME280;6152;48.728;9.256;2023-06-10T00:07:05;96710.00;;;18.62;93.40
12178;BME280;6152;48.728;9.256;2023-06-10T00:09:35;96704.38;;;18.57;93.52
12178;BME280;6152;48.728;9.256;2023-06-10T00:12:04;96707.16;;;18.56;94.32
12178;BME280;6152;48.728;9.256;2023-06-10T00:14:30;96702.84;;;18.55;94.84
12178;BME280;6152;48.728;9.256;2023-06-10T00:16:56;96704.00;;;18.52;95.47
12178;BME280;6152;48.728;9.256;2023-06-10T00:19:23;96697.34;;;18.48;95.94
12178;BME280;6152;48.728;9.256;2023-06-10T00:21:51;96705.41;;;18.47;97.09
12178;BME280;6152;48.728;9.256;2023-06-10T00:24:18;96690.03;;;18.42;98.02
12178;BME280;6152;48.728;9.256;2023-06-10T00:26:44;96702.38;;;18.42;98.45
12178;BME280;6152;48.728;9.256;2023-06-10T00:29:11;96694.66;;;18.40;99.02
12178;BME280;6152;48.728;9.256;2023-06-10T00:31:38;96690.34;;;18.39;99.23
12178;BME280;6152;48.728;9.256;2023-06-10T00:34:04;96700.22;;;18.37;99.47
12178;BME280;6152;48.728;9.256;2023-06-10T00:36:30;96694.69;;;18.31;100.00
12178;BME280;6152;48.728;9.256;2023-06-10T00:38:57;96697.81;;;18.26;100.00
12178;BME280;6152;48.728;9.256;2023-06-10T00:41:23;96687.06;;;18.20;100.00
12178;BME280;6152;48.728;9.256;2023-06-10T00:43:49;96699.00;;;18.14;100.00
12178;BME280;6152;48.728;9.256;2023-06-10T00:46:16;96708.19;;;18.10;100.00
12178;BME280;6152;48.728;9.256;2023-06-10T00:48:44;96700.72;;;18.05;100.00
12178;BME280;6152;48.728;9.256;2023-06-10T00:51:11;96697.56;;;18.02;100.00
12178;BME280;6152;48.728;9.256;2023-06-10T00:53:40;96702.31;;;17.98;100.00
12178;BME280;6152;48.728;9.256;2023-06-10T00:56:07;96701.59;;;17.96;100.00
12178;BME280;6152;48.728;9.256;2023-06-10T00:58:33;96699.13;;;17.95;100.00
12178;BME280;6152;48.728;9.256;2023-06-10T01:00:59;96697.16;;;17.97;100.00
12178;BME280;6152;48.728;9.256;2023-06-10T01:03:26;96701.59;;;17.96;100.00
12178;BME280;6152;48.728;9.256;2023-06-10T01:06:03;96697.47;;;17.94;100.00
12178;BME280;6152;48.728;9.256;2023-06-10T01:08:56;96703.03;;;17.91;100.00
12178;BME280;6152;48.728;9.256;2023-06-10T01:11:28;96700.72;;;17.88;100.00
12178;BME280;6152;48.728;9.256;2023-06-10T01:13:56;96695.88;;;17.83;100.00
12178;BME280;6152;48.728;9.256;2023-06-10T01:16:24;96695.50;;;17.78;100.00
12178;BME280;6152;48.728;9.256;2023-06-10T01:18:51;96690.66;;;17.74;100.00
12178;BME280;6152;48.728;9.256;2023-06-10T01:21:24;96687.38;;;17.72;100.00
12178;BME280;6152;48.728;9.256;2023-06-10T01:23:52;96680.19;;;17.64;100.00
12178;BME280;6152;48.728;9.256;2023-06-10T01:26:22;96684.94;;;17.60;100.00
12178;BME280;6152;48.728;9.256;2023-06-10T01:29:15;96698.38;;;17.57;100.00
12178;BME280;6152;48.728;9.256;2023-06-10T01:31:48;96689.09;;;17.53;100.00
12178;BME280;6152;48.728;9.256;2023-06-10T01:34:18;96689.38;;;17.50;100.00
12178;BME280;6152;48.728;9.256;2023-06-10T01:36:48;96693.94;;;17.48;100.00
12178;BME280;6152;48.728;9.256;2023-06-10T01:39:21;96697.56;;;17.47;100.00
12178;BME280;6152;48.728;9.256;2023-06-10T01:41:49;96697.56;;;17.47;100.00
12178;BME280;6152;48.728;9.256;2023-06-10T01:44:19;96690.94;;;17.43;100.00
12178;BME280;6152;48.728;9.256;2023-06-10T01:46:45;96693.88;;;17.40;100.00
12178;BME280;6152;48.728;9.256;2023-06-10T01:49:12;96694.16;;;17.37;100.00
12178;BME280;6152;48.728;9.256;2023-06-10T01:51:38;96696.34;;;17.42;100.00
12178;BME280;6152;48.728;9.256;2023-06-10T01:54:05;96694.00;;;17.39;100.00
12178;BME280;6152;48.728;9.256;2023-06-10T01:56:32;96693.16;;;17.38;100.00
12178;BME280;6152;48.728;9.256;2023-06-10T01:58:58;96696.91;;;17.36;100.00
12178;BME280;6152;48.728;9.256;2023-06-10T02:01:28;96705.78;;;17.35;100.00
12178;BME280;6152;48.728;9.256;2023-06-10T02:03:54;96699.84;;;17.33;100.00
12178;BME280;6152;48.728;9.256;2023-06-10T02:06:20;96698.34;;;17.30;100.00
12178;BME280;6152;48.728;9.256;2023-06-10T02:08:47;96698.88;;;17.34;100.00
12178;BME280;6152;48.728;9.256;2023-06-10T02:11:13;96701.31;;;17.45;100.00
12178;BME280;6152;48.728;9.256;2023-06-10T02:13:39;96703.00;;;17.36;100.00
12178;BME280;6152;48.728;9.256;2023-06-10T02:16:05;96702.59;;;17.31;100.00
12178;BME280;6152;48.728;9.256;2023-06-10T02:18:32;96702.22;;;17.26;100.00
12178;BME280;6152;48.728;9.256;2023-06-10T02:20:58;96706.53;;;17.27;100.00
12178;BME280;6152;48.728;9.256;2023-06-10T02:23:24;96708.59;;;17.24;100.00
12178;BME280;6152;48.728;9.256;2023-06-10T02:25:50;96708.88;;;17.21;100.00
12178;BME280;6152;48.728;9.256;2023-06-10T02:28:16;96706.09;;;17.22;100.00
12178;BME280;6152;48.728;9.256;2023-06-10T02:30:43;96706.41;;;17.19;100.00
12178;BME280;6152;48.728;9.256;2023-06-10T02:33:09;96707.78;;;17.23;100.00
12178;BME280;6152;48.728;9.256;2023-06-10T02:35:39;96709.31;;;17.16;100.00
12178;BME280;6152;48.728;9.256;2023-06-10T02:38:05;96713.88;;;17.14;100.00
12178;BME280;6152;48.728;9.256;2023-06-10T02:40:31;96709.19;;;17.08;100.00
12178;BME280;6152;48.728;9.256;2023-06-10T02:42:58;96718.34;;;17.04;100.00
12178;BME280;6152;48.728;9.256;2023-06-10T02:45:24;96725.84;;;16.99;100.00
12178;BME280;6152;48.728;9.256;2023-06-10T02:47:50;96729.44;;;16.98;100.00
12178;BME280;6152;48.728;9.256;2023-06-10T02:50:17;96726.91;;;16.96;100.00
12178;BME280;6152;48.728;9.256;2023-06-10T02:52:44;96733.31;;;16.94;100.00
12178;BME280;6152;48.728;9.256;2023-06-10T02:55:10;96731.91;;;16.90;100.00
12178;BME280;6152;48.728;9.256;2023-06-10T02:57:36;96726.13;;;16.86;100.00
12178;BME280;6152;48.728;9.256;2023-06-10T03:00:03;96734.44;;;16.82;100.00
12178;BME280;6152;48.728;9.256;2023-06-10T03:02:35;96731.38;;;16.77;100.00
12178;BME280;6152;48.728;9.256;2023-06-10T03:05:04;96729.47;;;16.79;100.00
12178;BME280;6152;48.728;9.256;2023-06-10T03:07:31;96733.34;;;16.75;100.00
12178;BME280;6152;48.728;9.256;2023-06-10T03:09:58;96728.66;;;16.69;100.00
12178;BME280;6152;48.728;9.256;2023-06-10T03:12:24;96725.59;;;16.63;100.00
12178;BME280;6152;48.728;9.256;2023-06-10T03:14:50;96732.25;;;16.58;100.00
12178;BME280;6152;48.728;9.256;2023-06-10T03:17:16;96737.16;;;16.51;100.00
12178;BME280;6152;48.728;9.256;2023-06-10T03:19:42;96740.25;;;16.47;100.00
12178;BME280;6152;48.728;9.256;2023-06-10T03:22:15;96743.28;;;16.42;100.00
12178;BME280;6152;48.728;9.256;2023-06-10T03:24:42;96740.78;;;16.41;100.00
12178;BME280;6152;48.728;9.256;2023-06-10T03:27:10;96749.75;;;16.38;100.00
12178;BME280;6152;48.728;9.256;2023-06-10T03:29:37;96760.97;;;16.40;100.00
12178;BME280;6152;48.728;9.256;2023-06-10T03:32:04;96761.50;;;16.34;100.00
12178;BME280;6152;48.728;9.256;2023-06-10T03:34:30;96759.88;;;16.33;100.00
12178;BME280;6152;48.728;9.256;2023-06-10T03:36:57;96760.25;;;16.29;100.00
12178;BME280;6152;48.728;9.256;2023-06-10T03:39:23;96760.53;;;16.26;100.00
12178;BME280;6152;48.728;9.256;2023-06-10T03:41:50;96760.66;;;16.24;100.00
12178;BME280;6152;48.728;9.256;2023-06-10T03:44:16;96757.06;;;16.25;100.00
12178;BME280;6152;48.728;9.256;2023-06-10T03:46:42;96763.28;;;16.24;100.00
12178;BME280;6152;48.728;9.256;2023-06-10T03:49:08;96765.91;;;16.24;100.00
12178;BME280;6152;48.728;9.256;2023-06-10T03:51:35;96762.34;;;16.25;100.00
12178;BME280;6152;48.728;9.256;2023-06-10T03:54:02;96768.53;;;16.24;100.00
12178;BME280;6152;48.728;9.256;2023-06-10T03:56:28;96765.22;;;16.22;100.00
12178;BME280;6152;48.728;9.256;2023-06-10T03:58:55;96760.94;;;16.21;100.00
12178;BME280;6152;48.728;9.256;2023-06-10T04:01:21;96769.81;;;16.20;100.00
12178;BME280;6152;48.728;9.256;2023-06-10T04:03:49;96776.69;;;16.21;100.00
12178;BME280;6152;48.728;9.256;2023-06-10T04:06:17;96773.09;;;16.22;100.00
12178;BME280;6152;48.728;9.256;2023-06-10T04:08:43;96769.53;;;16.23;100.00
12178;BME280;6152;48.728;9.256;2023-06-10T04:11:09;96771.16;;;16.24;100.00
12178;BME280;6152;48.728;9.256;2023-06-10T04:13:36;96772.84;;;16.25;100.00
12178;BME280;6152;48.728;9.256;2023-06-10T04:16:02;96768.41;;;16.26;100.00
12178;BME280;6152;48.728;9.256;2023-06-10T04:18:29;96772.56;;;16.28;100.00
12178;BME280;6152;48.728;9.256;2023-06-10T04:20:55;96773.94;;;16.32;100.00
12178;BME280;6152;48.728;9.256;2023-06-10T04:23:21;96777.00;;;16.37;100.00
12178;BME280;6152;48.728;9.256;2023-06-10T04:25:47;96777.00;;;16.37;100.00
12178;BME280;6152;48.728;9.256;2023-06-10T04:28:14;96775.06;;;16.39;100.00
12178;BME280;6152;48.728;9.256;2023-06-10T04:30:40;96783.38;;;16.44;100.00
12178;BME280;6152;48.728;9.256;2023-06-10T04:33:07;96785.00;;;16.45;100.00
12178;BME280;6152;48.728;9.256;2023-06-10T04:35:35;96782.00;;;16.50;100.00
12178;BME280;6152;48.728;9.256;2023-06-10T04:38:01;96783.25;;;16.55;100.00
12178;BME280;6152;48.728;9.256;2023-06-10T04:40:29;96788.09;;;16.60;100.00
12178;BME280;6152;48.728;9.256;2023-06-10T04:42:55;96785.91;;;16.65;100.00
12178;BME280;6152;48.728;9.256;2023-06-10T04:45:21;96794.06;;;16.72;100.00
12178;BME280;6152;48.728;9.256;2023-06-10T04:47:47;96786.59;;;16.77;100.00
12178;BME280;6152;48.728;9.256;2023-06-10T04:50:13;96789.75;;;16.80;100.00
12178;BME280;6152;48.728;9.256;2023-06-10T04:52:40;96793.66;;;16.86;100.00
12178;BME280;6152;48.728;9.256;2023-06-10T04:55:07;96792.09;;;16.93;100.00
12178;BME280;6152;48.728;9.256;2023-06-10T04:57:34;96787.25;;;16.98;100.00
12178;BME280;6152;48.728;9.256;2023-06-10T05:00:01;96793.91;;;17.02;100.00
12178;BME280;6152;48.728;9.256;2023-06-10T05:02:27;96791.94;;;17.04;100.00
12178;BME280;6152;48.728;9.256;2023-06-10T05:04:53;96798.47;;;17.09;100.00
12178;BME280;6152;48.728;9.256;2023-06-10T05:07:20;96807.47;;;17.16;100.00
12178;BME280;6152;48.728;9.256;2023-06-10T05:09:46;96803.53;;;17.21;100.00
12178;BME280;6152;48.728;9.256;2023-06-10T05:12:13;96803.84;;;17.27;100.00
12178;BME280;6152;48.728;9.256;2023-06-10T05:14:39;96801.59;;;17.32;100.00
12178;BME280;6152;48.728;9.256;2023-06-10T05:17:05;96806.28;;;17.38;100.00
12178;BME280;6152;48.728;9.256;2023-06-10T05:19:32;96803.22;;;17.43;100.00
12178;BME280;6152;48.728;9.256;2023-06-10T05:21:58;96799.34;;;17.47;100.00
12178;BME280;6152;48.728;9.256;2023-06-10T05:24:24;96796.28;;;17.51;100.00
12178;BME280;6152;48.728;9.256;2023-06-10T05:26:50;96797.38;;;17.58;100.00
12178;BME280;6152;48.728;9.256;2023-06-10T05:29:16;96808.63;;;17.60;100.00
12178;BME280;6152;48.728;9.256;2023-06-10T05:31:43;96809.00;;;17.65;100.00
12178;BME280;6152;48.728;9.256;2023-06-10T05:34:09;96813.72;;;17.72;100.00
12178;BME280;6152;48.728;9.256;2023-06-10T05:36:35;96810.06;;;17.82;100.00
12178;BME280;6152;48.728;9.256;2023-06-10T05:39:01;96809.47;;;17.88;100.00
12178;BME280;6152;48.728;9.256;2023-06-10T05:41:27;96813.63;;;17.91;100.00
12178;BME280;6152;48.728;9.256;2023-06-10T05:43:53;96808.47;;;17.99;100.00
12178;BME280;6152;48.728;9.256;2023-06-10T05:46:20;96813.63;;;18.18;100.00
12178;BME280;6152;48.728;9.256;2023-06-10T05:48:46;96818.91;;;18.18;100.00
12178;BME280;6152;48.728;9.256;2023-06-10T05:51:12;96816.78;;;18.22;100.00
12178;BME280;6152;48.728;9.256;2023-06-10T05:53:38;96809.22;;;18.36;100.00
12178;BME280;6152;48.728;9.256;2023-06-10T05:56:19;96816.69;;;18.41;100.00
12178;BME280;6152;48.728;9.256;2023-06-10T05:59:09;96812.06;;;18.52;100.00
12178;BME280;6152;48.728;9.256;2023-06-10T06:01:35;96819.63;;;18.65;100.00
12178;BME280;6152;48.728;9.256;2023-06-10T06:04:01;96813.25;;;18.76;100.00
12178;BME280;6152;48.728;9.256;2023-06-10T06:06:27;96819.16;;;18.87;100.00
12178;BME280;6152;48.728;9.256;2023-06-10T06:08:53;96823.16;;;18.91;100.00
12178;BME280;6152;48.728;9.256;2023-06-10T06:11:20;96824.88;;;19.00;100.00
12178;BME280;6152;48.728;9.256;2023-06-10T06:13:46;96819.50;;;19.10;100.00
12178;BME280;6152;48.728;9.256;2023-06-10T06:16:14;96826.00;;;19.15;100.00
12178;BME280;6152;48.728;9.256;2023-06-10T06:18:40;96828.22;;;19.28;100.00
12178;BME280;6152;48.728;9.256;2023-06-10T06:21:06;96823.78;;;19.46;100.00
12178;BME280;6152;48.728;9.256;2023-06-10T06:23:32;96818.38;;;19.56;100.00
12178;BME280;6152;48.728;9.256;2023-06-10T06:25:58;96816.16;;;19.69;100.00
12178;BME280;6152;48.728;9.256;2023-06-10T06:28:24;96823.63;;;19.74;100.00
12178;BME280;6152;48.728;9.256;2023-06-10T06:30:55;96816.56;;;19.82;100.00
12178;BME280;6152;48.728;9.256;2023-06-10T06:33:21;96823.09;;;20.04;100.00
12178;BME280;6152;48.728;9.256;2023-06-10T06:35:47;96822.91;;;20.31;100.00
12178;BME280;6152;48.728;9.256;2023-06-10T06:38:13;96819.66;;;20.45;100.00
12178;BME280;6152;48.728;9.256;2023-06-10T06:40:40;96824.84;;;20.71;100.00
12178;BME280;6152;48.728;9.256;2023-06-10T06:43:06;96829.00;;;20.90;100.00
12178;BME280;6152;48.728;9.256;2023-06-10T06:45:32;96820.59;;;21.10;98.22
12178;BME280;6152;48.728;9.256;2023-06-10T06:47:59;96824.25;;;21.26;96.07
12178;BME280;6152;48.728;9.256;2023-06-10T06:50:25;96830.84;;;21.46;97.89
12178;BME280;6152;48.728;9.256;2023-06-10T06:52:52;96838.91;;;21.77;91.27
12178;BME280;6152;48.728;9.256;2023-06-10T06:55:18;96830.44;;;21.89;91.48
12178;BME280;6152;48.728;9.256;2023-06-10T06:57:44;96831.56;;;22.11;88.56
12178;BME280;6152;48.728;9.256;2023-06-10T07:00:10;96828.19;;;22.25;87.69
12178;BME280;6152;48.728;9.256;2023-06-10T07:02:37;96842.41;;;22.40;86.07
12178;BME280;6152;48.728;9.256;2023-06-10T07:05:03;96844.50;;;22.45;84.13
12178;BME280;6152;48.728;9.256;2023-06-10T07:07:29;96840.03;;;22.45;84.80
12178;BME280;6152;48.728;9.256;2023-06-10T07:09:55;96835.00;;;22.58;85.24
12178;BME280;6152;48.728;9.256;2023-06-10T07:12:21;96842.84;;;22.83;84.08
12178;BME280;6152;48.728;9.256;2023-06-10T07:14:50;96839.22;;;23.06;80.40
12178;BME280;6152;48.728;9.256;2023-06-10T07:17:17;96842.63;;;23.15;79.24
12178;BME280;6152;48.728;9.256;2023-06-10T07:19:44;96839.44;;;23.20;77.09
12178;BME280;6152;48.728;9.256;2023-06-10T07:22:10;96833.47;;;22.95;78.72
12178;BME280;6152;48.728;9.256;2023-06-10T07:24:37;96829.88;;;22.88;80.70
12178;BME280;6152;48.728;9.256;2023-06-10T07:27:03;96841.41;;;22.72;81.28
12178;BME280;6152;48.728;9.256;2023-06-10T07:29:29;96831.31;;;22.98;81.45
12178;BME280;6152;48.728;9.256;2023-06-10T07:31:55;96834.81;;;23.36;78.42
12178;BME280;6152;48.728;9.256;2023-06-10T07:34:21;96829.53;;;23.74;75.67
12178;BME280;6152;48.728;9.256;2023-06-10T07:36:47;96832.53;;;23.71;71.39
12178;BME280;6152;48.728;9.256;2023-06-10T07:39:13;96822.13;;;23.98;72.17
12178;BME280;6152;48.728;9.256;2023-06-10T07:41:39;96835.34;;;24.21;68.85
12178;BME280;6152;48.728;9.256;2023-06-10T07:44:06;96833.28;;;24.52;68.93
12178;BME280;6152;48.728;9.256;2023-06-10T07:46:32;96835.16;;;25.09;67.68
12178;BME280;6152;48.728;9.256;2023-06-10T07:48:58;96836.94;;;25.44;61.16
12178;BME280;6152;48.728;9.256;2023-06-10T07:51:24;96836.16;;;25.72;60.80
12178;BME280;6152;48.728;9.256;2023-06-10T07:53:50;96827.44;;;26.19;59.28
12178;BME280;6152;48.728;9.256;2023-06-10T07:56:16;96822.50;;;26.56;58.13
12178;BME280;6152;48.728;9.256;2023-06-10T07:58:42;96830.34;;;26.65;54.81
12178;BME280;6152;48.728;9.256;2023-06-10T08:01:09;96826.19;;;27.29;52.59
12178;BME280;6152;48.728;9.256;2023-06-10T08:03:36;96827.00;;;27.36;52.14
12178;BME280;6152;48.728;9.256;2023-06-10T08:06:02;96822.69;;;27.88;50.54
12178;BME280;6152;48.728;9.256;2023-06-10T08:08:28;96817.03;;;28.42;48.98
12178;BME280;6152;48.728;9.256;2023-06-10T08:10:54;96816.78;;;29.01;46.55
12178;BME280;6152;48.728;9.256;2023-06-10T08:13:20;96820.41;;;29.44;45.92
12178;BME280;6152;48.728;9.256;2023-06-10T08:15:48;96816.00;;;29.56;45.04
12178;BME280;6152;48.728;9.256;2023-06-10T08:18:16;96818.78;;;30.11;41.80
12178;BME280;6152;48.728;9.256;2023-06-10T08:20:42;96822.09;;;30.13;42.31
12178;BME280;6152;48.728;9.256;2023-06-10T08:23:08;96813.56;;;30.34;41.37
12178;BME280;6152;48.728;9.256;2023-06-10T08:25:34;96823.13;;;30.67;41.08
12178;BME280;6152;48.728;9.256;2023-06-10T08:28:00;96810.97;;;31.24;39.96
12178;BME280;6152;48.728;9.256;2023-06-10T08:30:26;96808.28;;;31.53;39.13
12178;BME280;6152;48.728;9.256;2023-06-10T08:32:53;96821.25;;;32.49;38.08
12178;BME280;6152;48.728;9.256;2023-06-10T08:35:19;96809.47;;;32.27;37.18
12178;BME280;6152;48.728;9.256;2023-06-10T08:37:45;96808.84;;;32.48;36.62
12178;BME280;6152;48.728;9.256;2023-06-10T08:40:12;96809.56;;;32.84;36.83
12178;BME280;6152;48.728;9.256;2023-06-10T08:42:45;96801.63;;;33.50;35.67
12178;BME280;6152;48.728;9.256;2023-06-10T08:45:17;96804.59;;;33.66;35.06
12178;BME280;6152;48.728;9.256;2023-06-10T08:47:46;96808.66;;;33.51;34.73
12178;BME280;6152;48.728;9.256;2023-06-10T08:50:17;96806.69;;;33.30;33.90
12178;BME280;6152;48.728;9.256;2023-06-10T08:52:44;96807.59;;;33.52;34.01
12178;BME280;6152;48.728;9.256;2023-06-10T08:55:21;96805.53;;;34.26;32.41
12178;BME280;6152;48.728;9.256;2023-06-10T08:57:52;96810.31;;;34.84;32.70
12178;BME280;6152;48.728;9.256;2023-06-10T09:00:19;96801.72;;;35.73;30.91
12178;BME280;6152;48.728;9.256;2023-06-10T09:02:45;96795.84;;;35.86;30.73
12178;BME280;6152;48.728;9.256;2023-06-10T09:05:11;96794.06;;;36.48;30.16
12178;BME280;6152;48.728;9.256;2023-06-10T09:07:38;96792.28;;;36.64;29.74
12178;BME280;6152;48.728;9.256;2023-06-10T09:10:05;96795.00;;;35.48;30.28
12178;BME280;6152;48.728;9.256;2023-06-10T09:12:33;96793.53;;;34.61;31.23
12178;BME280;6152;48.728;9.256;2023-06-10T09:15:00;96785.72;;;34.42;31.47
12178;BME280;6152;48.728;9.256;2023-06-10T09:17:27;96790.69;;;34.29;31.50
12178;BME280;6152;48.728;9.256;2023-06-10T09:19:54;96799.81;;;34.06;32.12
12178;BME280;6152;48.728;9.256;2023-06-10T09:22:22;96785.34;;;34.56;32.34
12178;BME280;6152;48.728;9.256;2023-06-10T09:24:49;96788.94;;;35.36;30.54
12178;BME280;6152;48.728;9.256;2023-06-10T09:27:15;96790.78;;;36.36;28.64
12178;BME280;6152;48.728;9.256;2023-06-10T09:29:54;96787.84;;;37.30;28.14
12178;BME280;6152;48.728;9.256;2023-06-10T09:32:20;96792.69;;;38.29;27.04
12178;BME280;6152;48.728;9.256;2023-06-10T09:34:47;96786.13;;;38.35;26.32
12178;BME280;6152;48.728;9.256;2023-06-10T09:37:19;96785.69;;;38.82;25.39
12178;BME280;6152;48.728;9.256;2023-06-10T09:39:52;96782.88;;;39.03;24.71
12178;BME280;6152;48.728;9.256;2023-06-10T09:42:26;96780.41;;;39.06;24.65
12178;BME280;6152;48.728;9.256;2023-06-10T09:44:52;96777.94;;;39.05;24.25
12178;BME280;6152;48.728;9.256;2023-06-10T09:47:22;96775.00;;;40.55;23.65
12178;BME280;6152;48.728;9.256;2023-06-10T09:49:52;96772.66;;;40.67;22.47
12178;BME280;6152;48.728;9.256;2023-06-10T09:52:25;96780.09;;;40.14;22.95
12178;BME280;6152;48.728;9.256;2023-06-10T09:54:52;96767.56;;;39.12;23.67
12178;BME280;6152;48.728;9.256;2023-06-10T09:57:21;96766.66;;;39.21;24.87
12178;BME280;6152;48.728;9.256;2023-06-10T09:59:47;96763.28;;;39.39;23.90
12178;BME280;6152;48.728;9.256;2023-06-10T10:02:17;96760.66;;;39.92;23.51
12178;BME280;6152;48.728;9.256;2023-06-10T10:04:44;96765.00;;;38.76;23.98
12178;BME280;6152;48.728;9.256;2023-06-10T10:07:11;96766.09;;;37.25;25.95
12178;BME280;6152;48.728;9.256;2023-06-10T10:09:41;96756.91;;;37.57;26.28
12178;BME280;6152;48.728;9.256;2023-06-10T10:12:13;96762.22;;;36.81;26.67
12178;BME280;6152;48.728;9.256;2023-06-10T10:14:45;96753.06;;;36.30;27.54
12178;BME280;6152;48.728;9.256;2023-06-10T10:17:13;96753.34;;;37.41;26.50
12178;BME280;6152;48.728;9.256;2023-06-10T10:19:47;96748.69;;;38.81;25.10
12178;BME280;6152;48.728;9.256;2023-06-10T10:22:27;96757.44;;;39.56;24.63
12178;BME280;6152;48.728;9.256;2023-06-10T10:25:02;96749.19;;;39.95;23.13
12178;BME280;6152;48.728;9.256;2023-06-10T10:27:40;96751.16;;;39.56;23.55
12178;BME280;6152;48.728;9.256;2023-06-10T10:30:11;96746.91;;;39.78;23.05
12178;BME280;6152;48.728;9.256;2023-06-10T10:32:52;96743.72;;;39.95;23.11
12178;BME280;6152;48.728;9.256;2023-06-10T10:35:22;96758.13;;;38.99;23.48
12178;BME280;6152;48.728;9.256;2023-06-10T10:37:51;96750.47;;;39.01;23.14
12178;BME280;6152;48.728;9.256;2023-06-10T10:40:18;96747.09;;;39.19;23.93
12178;BME280;6152;48.728;9.256;2023-06-10T10:42:45;96747.09;;;40.34;22.41
12178;BME280;6152;48.728;9.256;2023-06-10T10:45:12;96748.38;;;40.66;22.49
12178;BME280;6152;48.728;9.256;2023-06-10T10:47:39;96744.16;;;40.31;22.16
12178;BME280;6152;48.728;9.256;2023-06-10T10:50:17;96740.75;;;41.56;21.09
12178;BME280;6152;48.728;9.256;2023-06-10T10:53:01;96747.28;;;42.47;20.14
12178;BME280;6152;48.728;9.256;2023-06-10T10:55:28;96750.66;;;42.44;19.97
12178;BME280;6152;48.728;9.256;2023-06-10T11:00:45;96737.50;;;43.54;18.77
12178;BME280;6152;48.728;9.256;2023-06-10T11:03:16;96733.00;;;43.36;19.33
12178;BME280;6152;48.728;9.256;2023-06-10T11:05:43;96728.28;;;43.50;18.70
12178;BME280;6152;48.728;9.256;2023-06-10T11:08:14;96729.38;;;43.71;18.63
12178;BME280;6152;48.728;9.256;2023-06-10T11:10:41;96729.47;;;43.57;18.18
12178;BME280;6152;48.728;9.256;2023-06-10T11:13:18;96726.50;;;41.08;20.11
12178;BME280;6152;48.728;9.256;2023-06-10T11:15:49;96724.72;;;39.56;21.25
12178;BME280;6152;48.728;9.256;2023-06-10T11:18:28;96731.00;;;38.79;22.24
12178;BME280;6152;48.728;9.256;2023-06-10T11:21:01;96731.84;;;38.05;23.27
12178;BME280;6152;48.728;9.256;2023-06-10T11:28:39;96725.75;;;34.45;26.89
12178;BME280;6152;48.728;9.256;2023-06-10T11:31:06;96719.53;;;35.99;26.65
12178;BME280;6152;48.728;9.256;2023-06-10T11:33:32;96726.41;;;38.05;24.25
12178;BME280;6152;48.728;9.256;2023-06-10T11:35:59;96716.84;;;39.55;22.07
12178;BME280;6152;48.728;9.256;2023-06-10T11:38:25;96716.59;;;40.75;20.55
12178;BME280;6152;48.728;9.256;2023-06-10T11:40:52;96713.94;;;41.07;20.67
12178;BME280;6152;48.728;9.256;2023-06-10T11:43:18;96723.28;;;42.30;19.34
12178;BME280;6152;48.728;9.256;2023-06-10T11:45:45;96711.09;;;41.82;20.05
12178;BME280;6152;48.728;9.256;2023-06-10T11:48:12;96713.72;;;42.14;19.30
12178;BME280;6152;48.728;9.256;2023-06-10T11:50:39;96714.81;;;41.86;20.28
12178;BME280;6152;48.728;9.256;2023-06-10T11:53:08;96710.44;;;39.98;21.73
12178;BME280;6152;48.728;9.256;2023-06-10T11:55:51;96710.94;;;37.96;23.60
12178;BME280;6152;48.728;9.256;2023-06-10T11:58:21;96706.81;;;36.62;25.29
12178;BME280;6152;48.728;9.256;2023-06-10T12:00:55;96708.06;;;35.45;26.80
12178;BME280;6152;48.728;9.256;2023-06-10T12:03:24;96705.03;;;34.29;28.08
12178;BME280;6152;48.728;9.256;2023-06-10T12:05:58;96707.50;;;33.37;29.03
12178;BME280;6152;48.728;9.256;2023-06-10T12:08:24;96699.25;;;32.82;29.77
12178;BME280;6152;48.728;9.256;2023-06-10T12:10:51;96704.22;;;31.94;31.35
12178;BME280;6152;48.728;9.256;2023-06-10T12:13:17;96706.97;;;31.59;31.73
12178;BME280;6152;48.728;9.256;2023-06-10T12:15:46;96695.66;;;31.04;32.52
12178;BME280;6152;48.728;9.256;2023-06-10T12:18:21;96705.31;;;30.82;33.70
12178;BME280;6152;48.728;9.256;2023-06-10T12:20:47;96701.00;;;30.51;33.85
12178;BME280;6152;48.728;9.256;2023-06-10T12:23:15;96696.28;;;30.65;34.86
12178;BME280;6152;48.728;9.256;2023-06-10T12:25:51;96694.44;;;30.47;34.15
12178;BME280;6152;48.728;9.256;2023-06-10T12:28:20;96698.81;;;30.60;34.20
12178;BME280;6152;48.728;9.256;2023-06-10T12:30:46;96692.50;;;30.54;34.25
12178;BME280;6152;48.728;9.256;2023-06-10T12:33:20;96693.00;;;30.44;34.97
12178;BME280;6152;48.728;9.256;2023-06-10T12:35:50;96701.34;;;30.06;34.25
12178;BME280;6152;48.728;9.256;2023-06-10T12:38:24;96699.47;;;30.07;35.52
12178;BME280;6152;48.728;9.256;2023-06-10T12:40:53;96690.75;;;30.12;34.45
12178;BME280;6152;48.728;9.256;2023-06-10T12:43:23;96698.00;;;29.93;34.42
12178;BME280;6152;48.728;9.256;2023-06-10T12:45:49;96702.59;;;29.86;35.13
12178;BME280;6152;48.728;9.256;2023-06-10T12:48:21;96698.31;;;30.03;35.14
12178;BME280;6152;48.728;9.256;2023-06-10T12:50:55;96694.72;;;29.91;34.33
12178;BME280;6152;48.728;9.256;2023-06-10T12:53:22;96699.19;;;29.97;33.83
12178;BME280;6152;48.728;9.256;2023-06-10T12:55:50;96691.28;;;30.02;34.84
12178;BME280;6152;48.728;9.256;2023-06-10T12:58:16;96676.19;;;30.19;34.49
12178;BME280;6152;48.728;9.256;2023-06-10T13:00:43;96679.84;;;30.25;34.23
12178;BME280;6152;48.728;9.256;2023-06-10T13:03:09;96684.72;;;29.98;35.18
12178;BME280;6152;48.728;9.256;2023-06-10T13:05:36;96693.97;;;29.84;35.78
12178;BME280;6152;48.728;9.256;2023-06-10T13:08:05;96682.13;;;29.48;35.79
12178;BME280;6152;48.728;9.256;2023-06-10T13:10:32;96683.41;;;29.46;36.35
12178;BME280;6152;48.728;9.256;2023-06-10T13:12:59;96685.56;;;29.37;36.97
12178;BME280;6152;48.728;9.256;2023-06-10T13:15:25;96684.63;;;29.25;36.62
12178;BME280;6152;48.728;9.256;2023-06-10T13:17:52;96683.09;;;29.11;36.73